sensor_id;sensor_type;location;lat;lon;timestamp;pressure;altitude;pressure_sealevel;temperature;humidity
61573;BME280;47465;43.094;12.434;2023-05-23T00:02:24;98467.38;;;13.74;100.00
61573;BME280;47465;43.094;12.434;2023-05-23T00:04:50;98478.72;;;13.80;100.00
61573;BME280;47465;43.094;12.434;2023-05-23T00:07:17;98490.88;;;13.87;100.00
61573;BME280;47465;43.094;12.434;2023-05-23T00:09:43;98470.41;;;13.67;100.00
61573;BME280;47465;43.094;12.434;2023-05-23T00:12:08;98475.78;;;13.65;100.00
61573;BME280;47465;43.094;12.434;2023-05-23T00:14:35;98467.25;;;13.57;100.00
61573;BME280;47465;43.094;12.434;2023-05-23T00:17:00;98482.22;;;13.61;100.00
61573;BME280;47465;43.094;12.434;2023-05-23T00:19:28;98467.44;;;13.52;100.00
61573;BME280;47465;43.094;12.434;2023-05-23T00:21:54;98459.03;;;13.41;100.00
61573;BME280;47465;43.094;12.434;2023-05-23T00:24:21;98489.69;;;13.53;100.00
61573;BME280;47465;43.094;12.434;2023-05-23T00:26:47;98461.97;;;13.35;100.00
61573;BME280;47465;43.094;12.434;2023-05-23T00:29:13;98491.56;;;13.51;100.00
61573;BME280;47465;43.094;12.434;2023-05-23T00:31:40;98457.03;;;13.46;100.00
61573;BME280;47465;43.094;12.434;2023-05-23T00:34:07;98461.56;;;13.65;100.00
61573;BME280;47465;43.094;12.434;2023-05-23T00:36:34;98476.28;;;13.94;100.00
61573;BME280;47465;43.094;12.434;2023-05-23T00:39:02;98454.84;;;13.95;100.00
61573;BME280;47465;43.094;12.434;2023-05-23T00:41:28;98457.19;;;14.03;100.00
61573;BME280;47465;43.094;12.434;2023-05-23T00:43:56;98449.22;;;14.02;100.00
61573;BME280;47465;43.094;12.434;2023-05-23T00:46:24;98450.88;;;14.04;100.00
61573;BME280;47465;43.094;12.434;2023-05-23T00:48:50;98445.75;;;14.00;100.00
61573;BME280;47465;43.094;12.434;2023-05-23T00:51:17;98473.66;;;14.13;100.00
61573;BME280;47465;43.094;12.434;2023-05-23T00:53:44;98466.38;;;14.16;100.00
61573;BME280;47465;43.094;12.434;2023-05-23T00:56:10;98489.44;;;14.38;100.00
61573;BME280;47465;43.094;12.434;2023-05-23T00:58:37;98470.13;;;14.31;100.00
61573;BME280;47465;43.094;12.434;2023-05-23T01:01:04;98451.69;;;14.25;100.00
61573;BME280;47465;43.094;12.434;2023-05-23T01:03:30;98462.81;;;14.35;100.00
61573;BME280;47465;43.094;12.434;2023-05-23T01:05:56;98457.75;;;14.29;100.00
61573;BME280;47465;43.094;12.434;2023-05-23T01:08:22;98446.91;;;14.13;100.00
61573;BME280;47465;43.094;12.434;2023-05-23T01:10:50;98450.81;;;14.06;100.00
61573;BME280;47465;43.094;12.434;2023-05-23T01:13:21;98446.28;;;13.87;100.00
61573;BME280;47465;43.094;12.434;2023-05-23T01:15:52;98447.75;;;13.75;100.00
61573;BME280;47465;43.094;12.434;2023-05-23T01:18:25;98449.88;;;13.67;100.00
61573;BME280;47465;43.094;12.434;2023-05-23T01:20:54;98473.94;;;13.67;100.00
61573;BME280;47465;43.094;12.434;2023-05-23T01:26:26;98439.97;;;13.30;100.00
61573;BME280;47465;43.094;12.434;2023-05-23T01:29:02;98466.47;;;13.34;100.00
61573;BME280;47465;43.094;12.434;2023-05-23T01:31:35;98438.63;;;13.18;100.00
61573;BME280;47465;43.094;12.434;2023-05-23T01:34:02;98477.00;;;13.38;100.00
61573;BME280;47465;43.094;12.434;2023-05-23T01:36:29;98449.25;;;13.20;100.00
61573;BME280;47465;43.094;12.434;2023-05-23T01:38:59;98431.28;;;13.03;100.00
61573;BME280;47465;43.094;12.434;2023-05-23T01:41:25;98427.19;;;12.94;100.00
61573;BME280;47465;43.094;12.434;2023-05-23T01:43:53;98439.47;;;12.98;100.00
61573;BME280;47465;43.094;12.434;2023-05-23T01:46:21;98436.34;;;12.88;100.00
61573;BME280;47465;43.094;12.434;2023-05-23T01:48:48;98422.25;;;12.85;100.00
61573;BME280;47465;43.094;12.434;2023-05-23T01:51:14;98473.75;;;13.09;100.00
61573;BME280;47465;43.094;12.434;2023-05-23T01:53:42;98458.22;;;12.97;100.00
61573;BME280;47465;43.094;12.434;2023-05-23T01:56:08;98453.34;;;12.86;100.00
61573;BME280;47465;43.094;12.434;2023-05-23T01:58:34;98429.84;;;12.73;100.00
61573;BME280;47465;43.094;12.434;2023-05-23T02:01:00;98431.50;;;12.76;100.00
61573;BME280;47465;43.094;12.434;2023-05-23T02:03:28;98444.28;;;12.68;100.00
61573;BME280;47465;43.094;12.434;2023-05-23T02:05:55;98464.34;;;12.78;100.00
61573;BME280;47465;43.094;12.434;2023-05-23T02:08:20;98440.16;;;12.61;100.00
61573;BME280;47465;43.094;12.434;2023-05-23T02:10:47;98431.34;;;12.59;100.00
61573;BME280;47465;43.094;12.434;2023-05-23T02:13:12;98428.63;;;12.60;100.00
61573;BME280;47465;43.094;12.434;2023-05-23T02:15:38;98425.13;;;12.58;100.00
61573;BME280;47465;43.094;12.434;2023-05-23T02:18:05;98423.00;;;12.44;100.00
61573;BME280;47465;43.094;12.434;2023-05-23T02:20:32;98451.81;;;12.58;100.00
61573;BME280;47465;43.094;12.434;2023-05-23T02:22:58;98452.09;;;12.50;100.00
61573;BME280;47465;43.094;12.434;2023-05-23T02:25:24;98439.19;;;12.40;100.00
61573;BME280;47465;43.094;12.434;2023-05-23T02:27:50;98429.47;;;12.39;100.00
61573;BME280;47465;43.094;12.434;2023-05-23T02:30:16;98433.16;;;12.36;100.00
61573;BME280;47465;43.094;12.434;2023-05-23T02:32:42;98476.72;;;12.57;100.00
61573;BME280;47465;43.094;12.434;2023-05-23T02:35:08;98440.34;;;12.34;100.00
61573;BME280;47465;43.094;12.434;2023-05-23T02:37:37;98449.88;;;12.40;100.00
61573;BME280;47465;43.094;12.434;2023-05-23T02:40:03;98455.16;;;12.41;100.00
61573;BME280;47465;43.094;12.434;2023-05-23T02:42:31;98468.06;;;12.52;100.00
61573;BME280;47465;43.094;12.434;2023-05-23T02:44:57;98457.63;;;12.46;100.00
61573;BME280;47465;43.094;12.434;2023-05-23T02:47:23;98421.97;;;12.26;100.00
61573;BME280;47465;43.094;12.434;2023-05-23T02:49:49;98435.72;;;12.38;100.00
61573;BME280;47465;43.094;12.434;2023-05-23T02:52:15;98419.25;;;12.28;100.00
61573;BME280;47465;43.094;12.434;2023-05-23T02:54:44;98424.63;;;12.26;100.00
61573;BME280;47465;43.094;12.434;2023-05-23T02:57:10;98463.72;;;12.49;100.00
61573;BME280;47465;43.094;12.434;2023-05-23T02:59:37;98422.75;;;12.28;100.00
61573;BME280;47465;43.094;12.434;2023-05-23T03:02:03;98454.91;;;12.47;100.00
61573;BME280;47465;43.094;12.434;2023-05-23T03:04:29;98435.06;;;12.32;100.00
61573;BME280;47465;43.094;12.434;2023-05-23T03:06:54;98458.38;;;12.49;100.00
61573;BME280;47465;43.094;12.434;2023-05-23T03:09:21;98429.16;;;12.24;100.00
61573;BME280;47465;43.094;12.434;2023-05-23T03:11:49;98434.66;;;12.20;100.00
61573;BME280;47465;43.094;12.434;2023-05-23T03:14:17;98470.72;;;12.30;100.00
61573;BME280;47465;43.094;12.434;2023-05-23T03:16:43;98432.59;;;12.04;100.00
61573;BME280;47465;43.094;12.434;2023-05-23T03:19:10;98433.00;;;11.94;100.00
61573;BME280;47465;43.094;12.434;2023-05-23T03:21:36;98471.13;;;12.19;100.00
61573;BME280;47465;43.094;12.434;2023-05-23T03:24:02;98483.31;;;12.25;100.00
61573;BME280;47465;43.094;12.434;2023-05-23T03:26:28;98458.84;;;12.15;100.00
61573;BME280;47465;43.094;12.434;2023-05-23T03:28:55;98435.63;;;11.95;100.00
61573;BME280;47465;43.094;12.434;2023-05-23T03:31:21;98473.03;;;12.16;100.00
61573;BME280;47465;43.094;12.434;2023-05-23T03:33:47;98439.09;;;11.97;100.00
61573;BME280;47465;43.094;12.434;2023-05-23T03:36:13;98465.47;;;12.03;100.00
61573;BME280;47465;43.094;12.434;2023-05-23T03:38:39;98464.56;;;12.04;100.00
61573;BME280;47465;43.094;12.434;2023-05-23T03:41:05;98445.47;;;11.93;100.00
61573;BME280;47465;43.094;12.434;2023-05-23T03:43:31;98456.00;;;11.96;100.00
61573;BME280;47465;43.094;12.434;2023-05-23T03:45:59;98448.22;;;11.90;100.00
61573;BME280;47465;43.094;12.434;2023-05-23T03:48:27;98448.41;;;11.84;100.00
61573;BME280;47465;43.094;12.434;2023-05-23T03:50:55;98449.34;;;11.83;100.00
61573;BME280;47465;43.094;12.434;2023-05-23T03:53:21;98485.84;;;12.06;100.00
61573;BME280;47465;43.094;12.434;2023-05-23T03:55:46;98453.91;;;11.79;100.00
61573;BME280;47465;43.094;12.434;2023-05-23T03:58:12;98474.06;;;11.88;100.00
61573;BME280;47465;43.094;12.434;2023-05-23T04:00:38;98452.16;;;11.80;100.00
61573;BME280;47465;43.094;12.434;2023-05-23T04:03:06;98459.19;;;11.81;100.00
61573;BME280;47465;43.094;12.434;2023-05-23T04:05:34;98479.38;;;11.88;100.00
61573;BME280;47465;43.094;12.434;2023-05-23T04:08:00;98467.97;;;11.84;100.00
61573;BME280;47465;43.094;12.434;2023-05-23T04:10:26;98472.09;;;11.93;100.00
61573;BME280;47465;43.094;12.434;2023-05-23T04:12:52;98480.16;;;11.91;100.00
61573;BME280;47465;43.094;12.434;2023-05-23T04:15:17;98478.28;;;11.94;100.00
61573;BME280;47465;43.094;12.434;2023-05-23T04:17:45;98507.69;;;12.16;100.00
61573;BME280;47465;43.094;12.434;2023-05-23T04:20:13;98470.94;;;12.00;100.00
61573;BME280;47465;43.094;12.434;2023-05-23T04:22:39;98502.16;;;12.20;100.00
61573;BME280;47465;43.094;12.434;2023-05-23T04:25:06;98486.47;;;12.12;100.00
61573;BME280;47465;43.094;12.434;2023-05-23T04:27:32;98486.41;;;12.14;100.00
61573;BME280;47465;43.094;12.434;2023-05-23T04:29:59;98508.59;;;12.38;100.00
61573;BME280;47465;43.094;12.434;2023-05-23T04:32:25;98493.25;;;12.21;100.00
61573;BME280;47465;43.094;12.434;2023-05-23T04:34:51;98518.84;;;12.49;100.00
61573;BME280;47465;43.094;12.434;2023-05-23T04:37:18;98515.84;;;12.58;100.00
61573;BME280;47465;43.094;12.434;2023-05-23T04:39:51;98474.50;;;12.46;100.00
61573;BME280;47465;43.094;12.434;2023-05-23T04:42:17;98484.81;;;12.56;100.00
61573;BME280;47465;43.094;12.434;2023-05-23T04:44:48;98473.06;;;12.60;100.00
61573;BME280;47465;43.094;12.434;2023-05-23T04:47:14;98485.94;;;12.72;100.00
61573;BME280;47465;43.094;12.434;2023-05-23T04:49:40;98523.84;;;13.02;100.00
61573;BME280;47465;43.094;12.434;2023-05-23T04:52:06;98503.50;;;13.00;100.00
61573;BME280;47465;43.094;12.434;2023-05-23T04:54:34;98488.38;;;12.99;100.00
61573;BME280;47465;43.094;12.434;2023-05-23T04:57:00;98493.09;;;13.14;100.00
61573;BME280;47465;43.094;12.434;2023-05-23T04:59:26;98497.16;;;13.23;100.00
61573;BME280;47465;43.094;12.434;2023-05-23T05:02:01;98493.84;;;13.60;100.00
61573;BME280;47465;43.094;12.434;2023-05-23T05:04:27;98496.22;;;14.26;100.00
61573;BME280;47465;43.094;12.434;2023-05-23T05:06:53;98500.28;;;14.73;100.00
61573;BME280;47465;43.094;12.434;2023-05-23T05:09:19;98500.59;;;15.03;100.00
61573;BME280;47465;43.094;12.434;2023-05-23T05:11:48;98497.47;;;15.12;100.00
61573;BME280;47465;43.094;12.434;2023-05-23T05:14:14;98495.03;;;15.43;100.00
61573;BME280;47465;43.094;12.434;2023-05-23T05:16:40;98488.59;;;15.47;100.00
61573;BME280;47465;43.094;12.434;2023-05-23T05:19:07;98500.16;;;15.65;100.00
61573;BME280;47465;43.094;12.434;2023-05-23T05:21:33;98480.22;;;15.18;100.00
61573;BME280;47465;43.094;12.434;2023-05-23T05:23:59;98485.19;;;15.60;100.00
61573;BME280;47465;43.094;12.434;2023-05-23T05:26:25;98514.91;;;15.91;100.00
61573;BME280;47465;43.094;12.434;2023-05-23T05:28:53;98478.72;;;15.82;100.00
61573;BME280;47465;43.094;12.434;2023-05-23T05:31:19;98484.56;;;15.90;100.00
61573;BME280;47465;43.094;12.434;2023-05-23T05:33:45;98492.81;;;16.03;100.00
61573;BME280;47465;43.094;12.434;2023-05-23T05:36:11;98477.78;;;16.16;100.00
61573;BME280;47465;43.094;12.434;2023-05-23T05:38:37;98473.81;;;16.23;99.72
61573;BME280;47465;43.094;12.434;2023-05-23T05:41:04;98493.13;;;16.30;99.24
61573;BME280;47465;43.094;12.434;2023-05-23T05:43:30;98487.56;;;16.17;100.00
61573;BME280;47465;43.094;12.434;2023-05-23T05:45:57;98483.03;;;15.67;100.00
61573;BME280;47465;43.094;12.434;2023-05-23T05:48:23;98500.06;;;16.01;100.00
61573;BME280;47465;43.094;12.434;2023-05-23T05:50:49;98499.69;;;15.74;100.00
61573;BME280;47465;43.094;12.434;2023-05-23T05:53:15;98468.59;;;15.70;100.00
61573;BME280;47465;43.094;12.434;2023-05-23T05:55:41;98493.63;;;15.88;100.00
61573;BME280;47465;43.094;12.434;2023-05-23T05:58:07;98477.72;;;16.18;100.00
61573;BME280;47465;43.094;12.434;2023-05-23T06:00:33;98471.88;;;15.76;100.00
61573;BME280;47465;43.094;12.434;2023-05-23T06:03:07;98465.53;;;15.95;100.00
61573;BME280;47465;43.094;12.434;2023-05-23T06:05:33;98485.75;;;16.18;100.00
61573;BME280;47465;43.094;12.434;2023-05-23T06:07:59;98476.53;;;16.39;100.00
61573;BME280;47465;43.094;12.434;2023-05-23T06:10:26;98463.63;;;16.62;100.00
61573;BME280;47465;43.094;12.434;2023-05-23T06:12:51;98481.91;;;16.87;99.80
61573;BME280;47465;43.094;12.434;2023-05-23T06:15:18;98473.09;;;16.85;100.00
61573;BME280;47465;43.094;12.434;2023-05-23T06:17:44;98511.31;;;17.36;100.00
61573;BME280;47465;43.094;12.434;2023-05-23T06:20:11;98469.13;;;17.53;95.72
61573;BME280;47465;43.094;12.434;2023-05-23T06:22:38;98484.28;;;17.84;94.90
61573;BME280;47465;43.094;12.434;2023-05-23T06:25:05;98477.97;;;17.85;93.01
61573;BME280;47465;43.094;12.434;2023-05-23T06:27:31;98493.53;;;18.09;93.33
61573;BME280;47465;43.094;12.434;2023-05-23T06:29:57;98472.09;;;18.07;91.86
61573;BME280;47465;43.094;12.434;2023-05-23T06:32:23;98470.28;;;18.22;91.85
61573;BME280;47465;43.094;12.434;2023-05-23T06:34:49;98473.06;;;17.92;92.96
61573;BME280;47465;43.094;12.434;2023-05-23T06:37:16;98477.59;;;18.20;90.28
61573;BME280;47465;43.094;12.434;2023-05-23T06:39:42;98477.88;;;18.15;90.94
61573;BME280;47465;43.094;12.434;2023-05-23T06:42:11;98475.25;;;18.28;90.13
61573;BME280;47465;43.094;12.434;2023-05-23T06:44:37;98477.56;;;17.91;92.96
61573;BME280;47465;43.094;12.434;2023-05-23T06:47:06;98476.03;;;18.01;91.86
61573;BME280;47465;43.094;12.434;2023-05-23T06:49:32;98475.63;;;17.93;93.02
61573;BME280;47465;43.094;12.434;2023-05-23T06:51:59;98475.06;;;18.17;91.66
61573;BME280;47465;43.094;12.434;2023-05-23T06:54:27;98466.88;;;18.47;88.97
61573;BME280;47465;43.094;12.434;2023-05-23T06:56:53;98488.13;;;19.07;86.24
61573;BME280;47465;43.094;12.434;2023-05-23T06:59:19;98470.19;;;19.34;87.84
61573;BME280;47465;43.094;12.434;2023-05-23T07:01:45;98470.31;;;19.85;82.88
61573;BME280;47465;43.094;12.434;2023-05-23T07:04:11;98483.06;;;19.96;83.08
61573;BME280;47465;43.094;12.434;2023-05-23T07:06:38;98469.34;;;19.99;82.30
61573;BME280;47465;43.094;12.434;2023-05-23T07:09:04;98468.66;;;20.34;81.09
61573;BME280;47465;43.094;12.434;2023-05-23T07:12:15;98473.72;;;20.64;77.84
61573;BME280;47465;43.094;12.434;2023-05-23T07:14:41;98468.53;;;20.48;76.62
61573;BME280;47465;43.094;12.434;2023-05-23T07:17:07;98466.72;;;20.61;77.06
61573;BME280;47465;43.094;12.434;2023-05-23T07:19:33;98506.31;;;20.86;76.05
61573;BME280;47465;43.094;12.434;2023-05-23T07:21:59;98478.22;;;20.76;74.98
61573;BME280;47465;43.094;12.434;2023-05-23T07:24:25;98466.84;;;20.84;74.91
61573;BME280;47465;43.094;12.434;2023-05-23T07:26:51;98491.13;;;21.21;73.32
61573;BME280;47465;43.094;12.434;2023-05-23T07:29:18;98496.03;;;21.40;73.22
61573;BME280;47465;43.094;12.434;2023-05-23T07:31:44;98461.53;;;21.43;72.32
61573;BME280;47465;43.094;12.434;2023-05-23T07:34:10;98451.72;;;21.53;71.50
61573;BME280;47465;43.094;12.434;2023-05-23T07:36:36;98482.75;;;21.72;70.59
61573;BME280;47465;43.094;12.434;2023-05-23T07:39:05;98474.91;;;21.69;70.12
61573;BME280;47465;43.094;12.434;2023-05-23T07:41:31;98475.66;;;21.82;71.44
61573;BME280;47465;43.094;12.434;2023-05-23T07:43:57;98478.09;;;21.74;69.72
61573;BME280;47465;43.094;12.434;2023-05-23T07:46:25;98481.94;;;21.23;72.72
61573;BME280;47465;43.094;12.434;2023-05-23T07:48:51;98458.25;;;21.38;72.30
61573;BME280;47465;43.094;12.434;2023-05-23T07:51:17;98462.25;;;21.81;69.75
61573;BME280;47465;43.094;12.434;2023-05-23T07:53:45;98494.09;;;22.24;70.82
61573;BME280;47465;43.094;12.434;2023-05-23T07:56:11;98467.00;;;21.77;69.20
61573;BME280;47465;43.094;12.434;2023-05-23T07:58:37;98486.03;;;22.11;69.88
61573;BME280;47465;43.094;12.434;2023-05-23T08:01:03;98462.41;;;22.13;69.51
61573;BME280;47465;43.094;12.434;2023-05-23T08:03:37;98465.16;;;22.35;69.26
61573;BME280;47465;43.094;12.434;2023-05-23T08:06:03;98476.25;;;22.66;67.11
61573;BME280;47465;43.094;12.434;2023-05-23T08:08:34;98487.75;;;22.01;68.23
61573;BME280;47465;43.094;12.434;2023-05-23T08:11:03;98451.44;;;21.92;70.55
61573;BME280;47465;43.094;12.434;2023-05-23T08:13:29;98468.97;;;22.33;68.66
61573;BME280;47465;43.094;12.434;2023-05-23T08:15:55;98447.19;;;22.23;67.21
61573;BME280;47465;43.094;12.434;2023-05-23T08:18:21;98456.53;;;22.42;66.45
61573;BME280;47465;43.094;12.434;2023-05-23T08:20:49;98450.97;;;22.54;67.38
61573;BME280;47465;43.094;12.434;2023-05-23T08:23:15;98473.59;;;22.87;65.77
61573;BME280;47465;43.094;12.434;2023-05-23T08:25:42;98457.44;;;22.97;64.90
61573;BME280;47465;43.094;12.434;2023-05-23T08:28:09;98466.53;;;23.07;65.83
61573;BME280;47465;43.094;12.434;2023-05-23T08:30:35;98445.25;;;23.03;65.07
61573;BME280;47465;43.094;12.434;2023-05-23T08:33:02;98453.00;;;23.07;63.28
61573;BME280;47465;43.094;12.434;2023-05-23T08:35:29;98455.69;;;23.19;64.02
61573;BME280;47465;43.094;12.434;2023-05-23T08:38:01;98457.78;;;22.49;64.83
61573;BME280;47465;43.094;12.434;2023-05-23T08:40:29;98449.88;;;22.57;65.49
61573;BME280;47465;43.094;12.434;2023-05-23T08:42:55;98450.16;;;22.43;66.25
61573;BME280;47465;43.094;12.434;2023-05-23T08:45:22;98453.44;;;22.69;65.83
61573;BME280;47465;43.094;12.434;2023-05-23T08:47:50;98455.69;;;23.19;65.80
61573;BME280;47465;43.094;12.434;2023-05-23T08:50:17;98480.63;;;23.66;63.20
61573;BME280;47465;43.094;12.434;2023-05-23T08:52:49;98448.16;;;23.75;63.16
61573;BME280;47465;43.094;12.434;2023-05-23T08:55:16;98454.66;;;23.84;62.14
61573;BME280;47465;43.094;12.434;2023-05-23T08:57:44;98484.88;;;24.01;62.87
61573;BME280;47465;43.094;12.434;2023-05-23T09:00:11;98451.53;;;23.35;62.46
61573;BME280;47465;43.094;12.434;2023-05-23T09:02:40;98449.41;;;23.39;63.11
61573;BME280;47465;43.094;12.434;2023-05-23T09:05:08;98468.13;;;23.53;62.13
61573;BME280;47465;43.094;12.434;2023-05-23T09:07:34;98453.31;;;23.25;61.49
61573;BME280;47465;43.094;12.434;2023-05-23T09:10:00;98459.19;;;23.63;62.97
61573;BME280;47465;43.094;12.434;2023-05-23T09:12:28;98450.47;;;23.80;62.27
61573;BME280;47465;43.094;12.434;2023-05-23T09:14:54;98447.91;;;24.09;60.23
61573;BME280;47465;43.094;12.434;2023-05-23T09:17:23;98443.91;;;24.34;60.06
61573;BME280;47465;43.094;12.434;2023-05-23T09:19:49;98454.75;;;24.55;59.26
61573;BME280;47465;43.094;12.434;2023-05-23T09:22:15;98448.03;;;24.59;58.51
61573;BME280;47465;43.094;12.434;2023-05-23T09:24:42;98444.72;;;24.56;59.06
61573;BME280;47465;43.094;12.434;2023-05-23T09:27:09;98444.50;;;24.78;59.22
61573;BME280;47465;43.094;12.434;2023-05-23T09:29:40;98442.97;;;24.86;56.33
61573;BME280;47465;43.094;12.434;2023-05-23T09:32:10;98463.88;;;24.54;56.87
61573;BME280;47465;43.094;12.434;2023-05-23T09:34:39;98446.34;;;24.68;57.89
61573;BME280;47465;43.094;12.434;2023-05-23T09:37:06;98465.16;;;24.50;57.01
61573;BME280;47465;43.094;12.434;2023-05-23T09:39:36;98436.47;;;24.67;57.02
61573;BME280;47465;43.094;12.434;2023-05-23T09:42:03;98439.75;;;24.09;59.32
61573;BME280;47465;43.094;12.434;2023-05-23T09:44:29;98435.25;;;24.50;59.67
61573;BME280;47465;43.094;12.434;2023-05-23T09:46:56;98437.19;;;24.69;56.30
61573;BME280;47465;43.094;12.434;2023-05-23T09:49:23;98419.75;;;24.82;56.12
61573;BME280;47465;43.094;12.434;2023-05-23T09:51:57;98425.22;;;25.11;55.39
61573;BME280;47465;43.094;12.434;2023-05-23T09:54:24;98424.06;;;25.13;50.97
61573;BME280;47465;43.094;12.434;2023-05-23T09:56:52;98450.28;;;25.14;51.59
61573;BME280;47465;43.094;12.434;2023-05-23T09:59:21;98435.84;;;25.14;50.88
61573;BME280;47465;43.094;12.434;2023-05-23T10:01:50;98442.19;;;25.34;50.05
61573;BME280;47465;43.094;12.434;2023-05-23T10:04:20;98441.03;;;25.36;49.15
61573;BME280;47465;43.094;12.434;2023-05-23T10:06:50;98443.16;;;25.52;48.68
61573;BME280;47465;43.094;12.434;2023-05-23T10:09:20;98424.25;;;25.41;48.23
61573;BME280;47465;43.094;12.434;2023-05-23T10:12:21;98450.63;;;25.31;47.89
61573;BME280;47465;43.094;12.434;2023-05-23T10:15:02;98413.38;;;25.21;47.63
61573;BME280;47465;43.094;12.434;2023-05-23T10:17:40;98414.19;;;24.83;50.33
61573;BME280;47465;43.094;12.434;2023-05-23T10:20:15;98437.53;;;24.86;52.09
61573;BME280;47465;43.094;12.434;2023-05-23T10:22:42;98418.47;;;24.95;50.51
61573;BME280;47465;43.094;12.434;2023-05-23T10:25:08;98421.53;;;25.21;50.10
61573;BME280;47465;43.094;12.434;2023-05-23T10:27:35;98435.88;;;25.53;49.83
61573;BME280;47465;43.094;12.434;2023-05-23T10:30:02;98417.22;;;25.68;49.48
61573;BME280;47465;43.094;12.434;2023-05-23T10:32:29;98410.00;;;25.86;48.76
61573;BME280;47465;43.094;12.434;2023-05-23T10:35:00;98408.03;;;25.59;49.41
61573;BME280;47465;43.094;12.434;2023-05-23T10:37:35;98414.63;;;25.17;51.27
61573;BME280;47465;43.094;12.434;2023-05-23T10:40:10;98408.94;;;25.40;50.65
61573;BME280;47465;43.094;12.434;2023-05-23T10:42:43;98414.44;;;24.70;51.04
61573;BME280;47465;43.094;12.434;2023-05-23T10:45:15;98425.06;;;24.12;51.32
61573;BME280;47465;43.094;12.434;2023-05-23T10:47:41;98395.56;;;24.38;51.51
61573;BME280;47465;43.094;12.434;2023-05-23T10:50:11;98420.22;;;24.96;52.56
61573;BME280;47465;43.094;12.434;2023-05-23T10:52:40;98397.44;;;24.97;52.34
61573;BME280;47465;43.094;12.434;2023-05-23T10:55:12;98398.19;;;25.38;51.22
61573;BME280;47465;43.094;12.434;2023-05-23T10:57:39;98392.28;;;25.62;49.69
61573;BME280;47465;43.094;12.434;2023-05-23T11:00:12;98393.84;;;25.65;49.38
61573;BME280;47465;43.094;12.434;2023-05-23T11:02:46;98388.66;;;25.81;49.33
61573;BME280;47465;43.094;12.434;2023-05-23T11:05:17;98386.59;;;25.46;48.68
61573;BME280;47465;43.094;12.434;2023-05-23T11:08:05;98389.59;;;25.53;50.11
61573;BME280;47465;43.094;12.434;2023-05-23T11:10:51;98388.41;;;25.75;48.83
61573;BME280;47465;43.094;12.434;2023-05-23T11:27:59;98406.94;;;25.23;43.33
61573;BME280;47465;43.094;12.434;2023-05-23T11:30:30;98374.13;;;25.14;44.93
61573;BME280;47465;43.094;12.434;2023-05-23T11:33:00;98361.09;;;24.98;45.71
61573;BME280;47465;43.094;12.434;2023-05-23T11:35:39;98361.50;;;25.13;45.38
61573;BME280;47465;43.094;12.434;2023-05-23T11:38:07;98354.22;;;25.14;43.54
61573;BME280;47465;43.094;12.434;2023-05-23T11:40:36;98345.47;;;25.10;44.16
61573;BME280;47465;43.094;12.434;2023-05-23T11:45:46;98350.53;;;25.81;43.30
61573;BME280;47465;43.094;12.434;2023-05-23T11:48:13;98351.72;;;26.16;42.75
61573;BME280;47465;43.094;12.434;2023-05-23T11:50:46;98363.59;;;26.53;41.60
61573;BME280;47465;43.094;12.434;2023-05-23T11:53:14;98347.19;;;26.62;40.29
61573;BME280;47465;43.094;12.434;2023-05-23T12:28:36;98332.88;;;24.90;42.58
61573;BME280;47465;43.094;12.434;2023-05-23T12:33:51;98335.44;;;24.82;43.23
61573;BME280;47465;43.094;12.434;2023-05-23T12:36:22;98333.00;;;24.78;42.06
61573;BME280;47465;43.094;12.434;2023-05-23T12:38:53;98299.34;;;24.50;42.28
61573;BME280;47465;43.094;12.434;2023-05-23T12:41:20;98296.50;;;24.52;40.41
61573;BME280;47465;43.094;12.434;2023-05-23T12:43:52;98298.66;;;24.58;39.00
61573;BME280;47465;43.094;12.434;2023-05-23T12:46:19;98300.94;;;24.82;39.64
61573;BME280;47465;43.094;12.434;2023-05-23T12:48:48;98315.25;;;25.13;40.75
61573;BME280;47465;43.094;12.434;2023-05-23T12:51:14;98336.41;;;25.58;40.64
61573;BME280;47465;43.094;12.434;2023-05-23T12:53:40;98298.41;;;25.67;39.99
61573;BME280;47465;43.094;12.434;2023-05-23T12:56:06;98293.94;;;25.75;39.72
61573;BME280;47465;43.094;12.434;2023-05-23T12:58:32;98300.78;;;26.17;40.62
61573;BME280;47465;43.094;12.434;2023-05-23T13:01:03;98330.56;;;26.56;39.95
61573;BME280;47465;43.094;12.434;2023-05-23T13:03:30;98325.59;;;26.69;40.67
61573;BME280;47465;43.094;12.434;2023-05-23T13:05:56;98306.72;;;26.58;39.94
61573;BME280;47465;43.094;12.434;2023-05-23T13:08:23;98313.28;;;26.65;40.03
61573;BME280;47465;43.094;12.434;2023-05-23T13:10:49;98305.28;;;26.54;39.04
61573;BME280;47465;43.094;12.434;2023-05-23T13:13:25;98326.31;;;26.43;39.43
61573;BME280;47465;43.094;12.434;2023-05-23T13:15:52;98299.34;;;26.40;39.79
61573;BME280;47465;43.094;12.434;2023-05-23T13:18:22;98301.13;;;26.32;39.23
61573;BME280;47465;43.094;12.434;2023-05-23T13:20:48;98303.00;;;26.59;38.98
61573;BME280;47465;43.094;12.434;2023-05-23T13:23:16;98294.28;;;26.73;39.61
61573;BME280;47465;43.094;12.434;2023-05-23T13:25:43;98282.00;;;26.41;39.16
61573;BME280;47465;43.094;12.434;2023-05-23T13:28:09;98281.09;;;26.23;38.64
61573;BME280;47465;43.094;12.434;2023-05-23T13:30:36;98268.97;;;26.35;39.62
61573;BME280;47465;43.094;12.434;2023-05-23T13:33:03;98261.47;;;26.65;38.45
61573;BME280;47465;43.094;12.434;2023-05-23T13:35:45;98287.41;;;26.69;37.77
61573;BME280;47465;43.094;12.434;2023-05-23T13:38:17;98264.31;;;26.46;38.66
61573;BME280;47465;43.094;12.434;2023-05-23T13:41:02;98262.75;;;26.43;38.36
61573;BME280;47465;43.094;12.434;2023-05-23T13:43:34;98253.38;;;26.10;37.47
61573;BME280;47465;43.094;12.434;2023-05-23T13:46:01;98254.66;;;26.33;36.90